sensor_id;sensor_type;location;lat;lon;timestamp;P1;durP1;ratioP1;P2;durP2;ratioP2
42668;SDS011;29384;42.028;21.388;2023-06-22T00:00:26;6.55;;;6.05;;
42668;SDS011;29384;42.028;21.388;2023-06-22T00:02:51;6.25;;;5.85;;
42668;SDS011;29384;42.028;21.388;2023-06-22T00:05:17;5.28;;;4.97;;
42668;SDS011;29384;42.028;21.388;2023-06-22T00:07:42;6.93;;;4.70;;
42668;SDS011;29384;42.028;21.388;2023-06-22T00:13:10;6.63;;;6.10;;
42668;SDS011;29384;42.028;21.388;2023-06-22T00:15:36;8.57;;;7.72;;
42668;SDS011;29384;42.028;21.388;2023-06-22T00:18:02;7.13;;;6.28;;
42668;SDS011;29384;42.028;21.388;2023-06-22T00:20:27;9.20;;;5.88;;
42668;SDS011;29384;42.028;21.388;2023-06-22T00:22:56;6.15;;;5.50;;
42668;SDS011;29384;42.028;21.388;2023-06-22T00:25:22;6.75;;;6.07;;
42668;SDS011;29384;42.028;21.388;2023-06-22T00:27:47;6.22;;;5.70;;
42668;SDS011;29384;42.028;21.388;2023-06-22T00:30:13;7.15;;;6.65;;
42668;SDS011;29384;42.028;21.388;2023-06-22T00:32:38;6.90;;;6.30;;
42668;SDS011;29384;42.028;21.388;2023-06-22T00:35:03;6.53;;;6.03;;
42668;SDS011;29384;42.028;21.388;2023-06-22T00:37:29;7.10;;;6.40;;
42668;SDS011;29384;42.028;21.388;2023-06-22T00:42:57;7.60;;;6.90;;
42668;SDS011;29384;42.028;21.388;2023-06-22T00:45:23;7.60;;;6.95;;
42668;SDS011;29384;42.028;21.388;2023-06-22T00:47:50;6.55;;;6.03;;
42668;SDS011;29384;42.028;21.388;2023-06-22T00:50:18;7.07;;;6.47;;
42668;SDS011;29384;42.028;21.388;2023-06-22T00:52:46;6.60;;;6.10;;
42668;SDS011;29384;42.028;21.388;2023-06-22T00:58:15;7.40;;;6.80;;
42668;SDS011;29384;42.028;21.388;2023-06-22T01:00:40;9.02;;;7.60;;
42668;SDS011;29384;42.028;21.388;2023-06-22T01:03:06;7.30;;;6.60;;
42668;SDS011;29384;42.028;21.388;2023-06-22T01:05:35;8.15;;;7.32;;
42668;SDS011;29384;42.028;21.388;2023-06-22T01:14:07;14.02;;;7.07;;
42668;SDS011;29384;42.028;21.388;2023-06-22T01:16:34;7.00;;;6.47;;
42668;SDS011;29384;42.028;21.388;2023-06-22T01:19:01;8.73;;;7.50;;
42668;SDS011;29384;42.028;21.388;2023-06-22T01:21:28;6.68;;;6.18;;
42668;SDS011;29384;42.028;21.388;2023-06-22T01:26:37;7.38;;;6.68;;
42668;SDS011;29384;42.028;21.388;2023-06-22T01:29:05;7.55;;;6.97;;
42668;SDS011;29384;42.028;21.388;2023-06-22T01:31:32;7.18;;;6.47;;
42668;SDS011;29384;42.028;21.388;2023-06-22T01:34:00;7.35;;;6.75;;
42668;SDS011;29384;42.028;21.388;2023-06-22T01:36:26;6.80;;;6.18;;
42668;SDS011;29384;42.028;21.388;2023-06-22T01:38:52;5.63;;;5.22;;
42668;SDS011;29384;42.028;21.388;2023-06-22T01:41:17;6.60;;;6.10;;
42668;SDS011;29384;42.028;21.388;2023-06-22T01:43:43;5.57;;;5.13;;
42668;SDS011;29384;42.028;21.388;2023-06-22T01:46:08;5.07;;;4.78;;
42668;SDS011;29384;42.028;21.388;2023-06-22T01:48:34;12.23;;;7.22;;
42668;SDS011;29384;42.028;21.388;2023-06-22T01:50:59;5.70;;;5.20;;
42668;SDS011;29384;42.028;21.388;2023-06-22T01:53:25;6.70;;;6.20;;
42668;SDS011;29384;42.028;21.388;2023-06-22T01:59:16;7.20;;;6.65;;
42668;SDS011;29384;42.028;21.388;2023-06-22T02:01:41;7.03;;;6.40;;
42668;SDS011;29384;42.028;21.388;2023-06-22T02:04:08;16.92;;;7.35;;
42668;SDS011;29384;42.028;21.388;2023-06-22T02:06:37;8.63;;;7.60;;
42668;SDS011;29384;42.028;21.388;2023-06-22T02:09:06;8.10;;;6.63;;
42668;SDS011;29384;42.028;21.388;2023-06-22T02:11:33;8.38;;;7.05;;
42668;SDS011;29384;42.028;21.388;2023-06-22T02:14:00;8.63;;;7.82;;
42668;SDS011;29384;42.028;21.388;2023-06-22T02:16:25;8.00;;;7.20;;
42668;SDS011;29384;42.028;21.388;2023-06-22T02:18:55;7.65;;;6.80;;
42668;SDS011;29384;42.028;21.388;2023-06-22T02:21:21;7.75;;;6.75;;
42668;SDS011;29384;42.028;21.388;2023-06-22T02:23:47;7.35;;;6.65;;
42668;SDS011;29384;42.028;21.388;2023-06-22T02:26:12;9.18;;;7.53;;
42668;SDS011;29384;42.028;21.388;2023-06-22T02:28:38;8.43;;;6.15;;
42668;SDS011;29384;42.028;21.388;2023-06-22T02:31:03;6.15;;;5.50;;
42668;SDS011;29384;42.028;21.388;2023-06-22T02:33:28;7.07;;;6.45;;
42668;SDS011;29384;42.028;21.388;2023-06-22T02:35:54;6.70;;;6.10;;
42668;SDS011;29384;42.028;21.388;2023-06-22T02:38:19;6.07;;;5.70;;
42668;SDS011;29384;42.028;21.388;2023-06-22T02:43:47;7.65;;;6.63;;
42668;SDS011;29384;42.028;21.388;2023-06-22T02:46:13;7.45;;;5.68;;
42668;SDS011;29384;42.028;21.388;2023-06-22T02:48:41;6.88;;;6.35;;
42668;SDS011;29384;42.028;21.388;2023-06-22T02:51:07;9.45;;;5.82;;
42668;SDS011;29384;42.028;21.388;2023-06-22T02:53:32;7.05;;;6.43;;
42668;SDS011;29384;42.028;21.388;2023-06-22T02:59:00;5.57;;;5.18;;
42668;SDS011;29384;42.028;21.388;2023-06-22T03:01:29;6.47;;;5.97;;
42668;SDS011;29384;42.028;21.388;2023-06-22T03:03:56;8.98;;;5.97;;
42668;SDS011;29384;42.028;21.388;2023-06-22T03:06:21;6.63;;;6.13;;
42668;SDS011;29384;42.028;21.388;2023-06-22T03:08:53;7.68;;;7.05;;
42668;SDS011;29384;42.028;21.388;2023-06-22T03:14:21;11.30;;;7.28;;
42668;SDS011;29384;42.028;21.388;2023-06-22T03:16:46;10.68;;;7.40;;
42668;SDS011;29384;42.028;21.388;2023-06-22T03:19:11;29.80;;;19.98;;
42668;SDS011;29384;42.028;21.388;2023-06-22T03:21:37;19.80;;;17.23;;
42668;SDS011;29384;42.028;21.388;2023-06-22T03:24:03;35.53;;;21.63;;
42668;SDS011;29384;42.028;21.388;2023-06-22T03:29:32;27.77;;;22.08;;
42668;SDS011;29384;42.028;21.388;2023-06-22T03:31:57;43.28;;;26.98;;
42668;SDS011;29384;42.028;21.388;2023-06-22T03:34:22;40.92;;;27.05;;
42668;SDS011;29384;42.028;21.388;2023-06-22T03:36:48;47.28;;;32.00;;
42668;SDS011;29384;42.028;21.388;2023-06-22T03:39:13;62.45;;;42.47;;
42668;SDS011;29384;42.028;21.388;2023-06-22T03:41:38;70.05;;;44.15;;
42668;SDS011;29384;42.028;21.388;2023-06-22T03:44:04;68.97;;;45.08;;
42668;SDS011;29384;42.028;21.388;2023-06-22T03:46:29;56.90;;;34.95;;
42668;SDS011;29384;42.028;21.388;2023-06-22T03:48:54;30.80;;;21.92;;
42668;SDS011;29384;42.028;21.388;2023-06-22T03:51:20;28.55;;;22.13;;
42668;SDS011;29384;42.028;21.388;2023-06-22T03:53:45;35.30;;;25.20;;
42668;SDS011;29384;42.028;21.388;2023-06-22T03:59:13;31.30;;;23.02;;
42668;SDS011;29384;42.028;21.388;2023-06-22T04:01:38;32.45;;;21.50;;
42668;SDS011;29384;42.028;21.388;2023-06-22T04:04:03;26.45;;;19.90;;
42668;SDS011;29384;42.028;21.388;2023-06-22T04:06:29;31.73;;;19.58;;
42668;SDS011;29384;42.028;21.388;2023-06-22T04:08:54;27.05;;;17.50;;
42668;SDS011;29384;42.028;21.388;2023-06-22T04:14:22;14.10;;;11.45;;
42668;SDS011;29384;42.028;21.388;2023-06-22T04:16:48;12.68;;;11.32;;
42668;SDS011;29384;42.028;21.388;2023-06-22T04:19:13;17.73;;;10.90;;
42668;SDS011;29384;42.028;21.388;2023-06-22T04:21:44;12.75;;;9.60;;
42668;SDS011;29384;42.028;21.388;2023-06-22T04:24:10;10.57;;;9.15;;
42668;SDS011;29384;42.028;21.388;2023-06-22T04:29:38;12.50;;;9.40;;
42668;SDS011;29384;42.028;21.388;2023-06-22T04:32:13;11.65;;;8.55;;
42668;SDS011;29384;42.028;21.388;2023-06-22T04:34:40;10.52;;;9.10;;
42668;SDS011;29384;42.028;21.388;2023-06-22T04:37:05;9.50;;;8.50;;
42668;SDS011;29384;42.028;21.388;2023-06-22T04:39:30;10.90;;;8.10;;
42668;SDS011;29384;42.028;21.388;2023-06-22T04:44:59;8.38;;;7.57;;
42668;SDS011;29384;42.028;21.388;2023-06-22T04:47:24;8.52;;;7.63;;
42668;SDS011;29384;42.028;21.388;2023-06-22T04:49:49;8.23;;;7.15;;
42668;SDS011;29384;42.028;21.388;2023-06-22T04:52:15;10.25;;;8.07;;
42668;SDS011;29384;42.028;21.388;2023-06-22T04:54:42;9.65;;;8.63;;
42668;SDS011;29384;42.028;21.388;2023-06-22T04:57:12;9.98;;;8.82;;
42668;SDS011;29384;42.028;21.388;2023-06-22T04:59:38;17.65;;;9.07;;
42668;SDS011;29384;42.028;21.388;2023-06-22T05:02:04;8.55;;;7.60;;
42668;SDS011;29384;42.028;21.388;2023-06-22T05:04:30;12.68;;;8.50;;
42668;SDS011;29384;42.028;21.388;2023-06-22T05:06:59;9.48;;;8.02;;
42668;SDS011;29384;42.028;21.388;2023-06-22T05:09:25;14.75;;;8.88;;
42668;SDS011;29384;42.028;21.388;2023-06-22T05:14:53;8.50;;;7.75;;
42668;SDS011;29384;42.028;21.388;2023-06-22T05:17:18;9.93;;;7.25;;
42668;SDS011;29384;42.028;21.388;2023-06-22T05:19:44;10.82;;;7.70;;
42668;SDS011;29384;42.028;21.388;2023-06-22T05:22:10;12.32;;;6.90;;
42668;SDS011;29384;42.028;21.388;2023-06-22T05:24:37;14.15;;;8.52;;
42668;SDS011;29384;42.028;21.388;2023-06-22T05:30:06;12.27;;;7.82;;
42668;SDS011;29384;42.028;21.388;2023-06-22T05:32:32;7.75;;;6.88;;
42668;SDS011;29384;42.028;21.388;2023-06-22T05:34:57;10.93;;;7.72;;
42668;SDS011;29384;42.028;21.388;2023-06-22T05:37:22;14.48;;;8.02;;
42668;SDS011;29384;42.028;21.388;2023-06-22T05:39:48;10.32;;;8.50;;
42668;SDS011;29384;42.028;21.388;2023-06-22T05:45:16;18.20;;;8.93;;
42668;SDS011;29384;42.028;21.388;2023-06-22T05:47:41;13.88;;;7.55;;
42668;SDS011;29384;42.028;21.388;2023-06-22T05:50:06;8.68;;;7.82;;
42668;SDS011;29384;42.028;21.388;2023-06-22T05:52:33;12.55;;;7.68;;
42668;SDS011;29384;42.028;21.388;2023-06-22T05:54:59;9.77;;;7.53;;
42668;SDS011;29384;42.028;21.388;2023-06-22T05:57:24;10.43;;;7.55;;
42668;SDS011;29384;42.028;21.388;2023-06-22T05:59:50;9.27;;;7.38;;
42668;SDS011;29384;42.028;21.388;2023-06-22T06:02:15;14.95;;;8.45;;
42668;SDS011;29384;42.028;21.388;2023-06-22T06:04:40;8.80;;;7.07;;
42668;SDS011;29384;42.028;21.388;2023-06-22T06:07:06;14.05;;;7.65;;
42668;SDS011;29384;42.028;21.388;2023-06-22T06:09:32;13.23;;;7.40;;
42668;SDS011;29384;42.028;21.388;2023-06-22T06:14:59;11.82;;;7.90;;
42668;SDS011;29384;42.028;21.388;2023-06-22T06:17:25;9.70;;;7.47;;
42668;SDS011;29384;42.028;21.388;2023-06-22T06:19:50;13.50;;;7.30;;
42668;SDS011;29384;42.028;21.388;2023-06-22T06:22:15;8.23;;;6.95;;
42668;SDS011;29384;42.028;21.388;2023-06-22T06:24:41;9.80;;;7.00;;
42668;SDS011;29384;42.028;21.388;2023-06-22T06:30:09;6.63;;;5.85;;
42668;SDS011;29384;42.028;21.388;2023-06-22T06:32:35;9.73;;;7.35;;
42668;SDS011;29384;42.028;21.388;2023-06-22T06:35:00;12.10;;;6.93;;
42668;SDS011;29384;42.028;21.388;2023-06-22T06:37:25;6.78;;;6.15;;
42668;SDS011;29384;42.028;21.388;2023-06-22T06:39:51;17.33;;;7.85;;
42668;SDS011;29384;42.028;21.388;2023-06-22T06:45:19;8.32;;;6.60;;
42668;SDS011;29384;42.028;21.388;2023-06-22T06:47:45;9.90;;;6.50;;
42668;SDS011;29384;42.028;21.388;2023-06-22T06:50:10;8.05;;;6.65;;
42668;SDS011;29384;42.028;21.388;2023-06-22T06:52:36;8.43;;;6.68;;
42668;SDS011;29384;42.028;21.388;2023-06-22T06:55:01;6.70;;;6.00;;
42668;SDS011;29384;42.028;21.388;2023-06-22T07:00:33;9.23;;;6.03;;
42668;SDS011;29384;42.028;21.388;2023-06-22T07:02:58;17.33;;;6.63;;
42668;SDS011;29384;42.028;21.388;2023-06-22T07:05:23;10.18;;;6.57;;
42668;SDS011;29384;42.028;21.388;2023-06-22T07:07:48;8.85;;;6.40;;
42668;SDS011;29384;42.028;21.388;2023-06-22T07:10:14;6.72;;;5.47;;
42668;SDS011;29384;42.028;21.388;2023-06-22T07:15:42;7.13;;;6.28;;
42668;SDS011;29384;42.028;21.388;2023-06-22T07:18:08;6.45;;;5.82;;
42668;SDS011;29384;42.028;21.388;2023-06-22T07:20:33;14.88;;;6.47;;
42668;SDS011;29384;42.028;21.388;2023-06-22T07:22:58;7.28;;;5.45;;
42668;SDS011;29384;42.028;21.388;2023-06-22T07:25:23;7.40;;;6.18;;
42668;SDS011;29384;42.028;21.388;2023-06-22T07:30:51;6.20;;;5.65;;
42668;SDS011;29384;42.028;21.388;2023-06-22T07:33:17;9.40;;;6.05;;
42668;SDS011;29384;42.028;21.388;2023-06-22T07:35:42;6.85;;;6.35;;
42668;SDS011;29384;42.028;21.388;2023-06-22T07:38:07;6.20;;;5.30;;
42668;SDS011;29384;42.028;21.388;2023-06-22T07:40:34;6.53;;;5.63;;
42668;SDS011;29384;42.028;21.388;2023-06-22T07:43:00;6.13;;;5.53;;
42668;SDS011;29384;42.028;21.388;2023-06-22T07:45:25;8.10;;;6.13;;
42668;SDS011;29384;42.028;21.388;2023-06-22T07:47:50;6.22;;;5.68;;
42668;SDS011;29384;42.028;21.388;2023-06-22T07:50:16;6.40;;;5.95;;
42668;SDS011;29384;42.028;21.388;2023-06-22T07:52:41;6.70;;;4.93;;
42668;SDS011;29384;42.028;21.388;2023-06-22T07:55:06;5.20;;;4.50;;
42668;SDS011;29384;42.028;21.388;2023-06-22T08:00:34;6.93;;;6.25;;
42668;SDS011;29384;42.028;21.388;2023-06-22T08:03:00;5.07;;;4.60;;
42668;SDS011;29384;42.028;21.388;2023-06-22T08:05:25;19.17;;;6.53;;
42668;SDS011;29384;42.028;21.388;2023-06-22T08:07:50;5.88;;;5.35;;
42668;SDS011;29384;42.028;21.388;2023-06-22T08:10:16;7.30;;;5.93;;
42668;SDS011;29384;42.028;21.388;2023-06-22T08:15:44;11.52;;;5.70;;
42668;SDS011;29384;42.028;21.388;2023-06-22T08:18:09;16.23;;;6.32;;
42668;SDS011;29384;42.028;21.388;2023-06-22T08:20:34;5.53;;;5.03;;
42668;SDS011;29384;42.028;21.388;2023-06-22T08:23:00;5.60;;;5.13;;
42668;SDS011;29384;42.028;21.388;2023-06-22T08:25:30;5.65;;;5.05;;
42668;SDS011;29384;42.028;21.388;2023-06-22T08:30:59;5.85;;;5.18;;
42668;SDS011;29384;42.028;21.388;2023-06-22T08:33:25;7.78;;;5.82;;
42668;SDS011;29384;42.028;21.388;2023-06-22T08:35:53;8.18;;;6.00;;
42668;SDS011;29384;42.028;21.388;2023-06-22T08:38:18;5.85;;;5.13;;
42668;SDS011;29384;42.028;21.388;2023-06-22T08:40:44;20.90;;;6.45;;
42668;SDS011;29384;42.028;21.388;2023-06-22T08:46:12;8.03;;;5.93;;
42668;SDS011;29384;42.028;21.388;2023-06-22T08:48:37;6.55;;;5.95;;
42668;SDS011;29384;42.028;21.388;2023-06-22T08:51:02;6.57;;;5.95;;
42668;SDS011;29384;42.028;21.388;2023-06-22T08:53:28;9.32;;;5.20;;
42668;SDS011;29384;42.028;21.388;2023-06-22T08:55:53;5.80;;;5.30;;
42668;SDS011;29384;42.028;21.388;2023-06-22T08:58:19;6.50;;;5.75;;
42668;SDS011;29384;42.028;21.388;2023-06-22T09:00:45;6.90;;;5.00;;
42668;SDS011;29384;42.028;21.388;2023-06-22T09:03:10;5.57;;;5.05;;
42668;SDS011;29384;42.028;21.388;2023-06-22T09:05:36;6.45;;;5.82;;
42668;SDS011;29384;42.028;21.388;2023-06-22T09:08:02;12.63;;;6.15;;
42668;SDS011;29384;42.028;21.388;2023-06-22T09:10:27;6.65;;;6.00;;
42668;SDS011;29384;42.028;21.388;2023-06-22T09:15:55;6.28;;;5.28;;
42668;SDS011;29384;42.028;21.388;2023-06-22T09:18:20;7.03;;;5.80;;
42668;SDS011;29384;42.028;21.388;2023-06-22T09:20:46;18.23;;;5.40;;
42668;SDS011;29384;42.028;21.388;2023-06-22T09:23:11;10.15;;;4.80;;
42668;SDS011;29384;42.028;21.388;2023-06-22T09:25:36;9.13;;;5.30;;
42668;SDS011;29384;42.028;21.388;2023-06-22T09:31:04;9.02;;;4.30;;
42668;SDS011;29384;42.028;21.388;2023-06-22T09:33:29;9.15;;;5.28;;
42668;SDS011;29384;42.028;21.388;2023-06-22T09:35:55;4.18;;;3.78;;
42668;SDS011;29384;42.028;21.388;2023-06-22T09:38:21;5.00;;;4.45;;
42668;SDS011;29384;42.028;21.388;2023-06-22T09:40:46;4.78;;;4.43;;
42668;SDS011;29384;42.028;21.388;2023-06-22T09:46:15;6.18;;;4.15;;
42668;SDS011;29384;42.028;21.388;2023-06-22T09:48:40;4.22;;;3.90;;
42668;SDS011;29384;42.028;21.388;2023-06-22T09:51:05;4.60;;;4.22;;
42668;SDS011;29384;42.028;21.388;2023-06-22T09:53:30;4.35;;;4.13;;
42668;SDS011;29384;42.028;21.388;2023-06-22T09:55:56;4.80;;;4.20;;
42668;SDS011;29384;42.028;21.388;2023-06-22T10:01:25;4.53;;;4.23;;
42668;SDS011;29384;42.028;21.388;2023-06-22T10:03:52;5.88;;;4.50;;
42668;SDS011;29384;42.028;21.388;2023-06-22T10:06:19;5.07;;;4.55;;
42668;SDS011;29384;42.028;21.388;2023-06-22T10:08:45;9.68;;;4.10;;
42668;SDS011;29384;42.028;21.388;2023-06-22T10:11:10;4.63;;;4.28;;
42668;SDS011;29384;42.028;21.388;2023-06-22T10:16:40;3.67;;;3.47;;
42668;SDS011;29384;42.028;21.388;2023-06-22T10:19:06;4.18;;;3.90;;
42668;SDS011;29384;42.028;21.388;2023-06-22T10:21:31;3.72;;;3.53;;
42668;SDS011;29384;42.028;21.388;2023-06-22T10:23:57;6.72;;;4.40;;
42668;SDS011;29384;42.028;21.388;2023-06-22T10:26:24;3.95;;;3.75;;
42668;SDS011;29384;42.028;21.388;2023-06-22T10:28:49;4.50;;;4.20;;
42668;SDS011;29384;42.028;21.388;2023-06-22T10:31:15;5.07;;;4.63;;
42668;SDS011;29384;42.028;21.388;2023-06-22T10:33:41;4.82;;;4.43;;
42668;SDS011;29384;42.028;21.388;2023-06-22T10:36:08;5.05;;;4.68;;
42668;SDS011;29384;42.028;21.388;2023-06-22T10:38:34;4.25;;;4.05;;
42668;SDS011;29384;42.028;21.388;2023-06-22T10:40:59;4.47;;;4.07;;
42668;SDS011;29384;42.028;21.388;2023-06-22T10:46:27;3.92;;;3.63;;
42668;SDS011;29384;42.028;21.388;2023-06-22T10:48:52;8.52;;;4.18;;
42668;SDS011;29384;42.028;21.388;2023-06-22T10:51:20;8.23;;;3.95;;
42668;SDS011;29384;42.028;21.388;2023-06-22T10:53:45;3.80;;;3.60;;
42668;SDS011;29384;42.028;21.388;2023-06-22T10:56:10;4.55;;;3.55;;
42668;SDS011;29384;42.028;21.388;2023-06-22T11:01:39;3.35;;;3.15;;
42668;SDS011;29384;42.028;21.388;2023-06-22T11:04:04;7.72;;;3.88;;
42668;SDS011;29384;42.028;21.388;2023-06-22T11:06:29;6.65;;;3.15;;
42668;SDS011;29384;42.028;21.388;2023-06-22T11:08:54;2.92;;;2.83;;
42668;SDS011;29384;42.028;21.388;2023-06-22T11:11:20;3.28;;;3.08;;
42668;SDS011;29384;42.028;21.388;2023-06-22T11:16:48;3.07;;;2.87;;
42668;SDS011;29384;42.028;21.388;2023-06-22T11:19:13;3.22;;;3.03;;
42668;SDS011;29384;42.028;21.388;2023-06-22T11:21:38;3.80;;;3.50;;
42668;SDS011;29384;42.028;21.388;2023-06-22T11:24:04;3.33;;;3.20;;
42668;SDS011;29384;42.028;21.388;2023-06-22T11:26:29;3.42;;;3.22;;
42668;SDS011;29384;42.028;21.388;2023-06-22T11:31:57;3.35;;;3.05;;
42668;SDS011;29384;42.028;21.388;2023-06-22T11:34:22;2.95;;;2.78;;
42668;SDS011;29384;42.028;21.388;2023-06-22T11:36:48;5.50;;;3.40;;
42668;SDS011;29384;42.028;21.388;2023-06-22T11:39:13;3.22;;;2.83;;
42668;SDS011;29384;42.028;21.388;2023-06-22T11:41:40;2.63;;;2.53;;
42668;SDS011;29384;42.028;21.388;2023-06-22T11:47:08;3.05;;;2.92;;
42668;SDS011;29384;42.028;21.388;2023-06-22T11:49:33;2.88;;;2.70;;
42668;SDS011;29384;42.028;21.388;2023-06-22T11:51:58;2.88;;;2.47;;
42668;SDS011;29384;42.028;21.388;2023-06-22T11:54:24;2.17;;;2.08;;
42668;SDS011;29384;42.028;21.388;2023-06-22T11:56:49;2.13;;;1.92;;
42668;SDS011;29384;42.028;21.388;2023-06-22T11:59:14;8.02;;;2.08;;
42668;SDS011;29384;42.028;21.388;2023-06-22T12:01:40;2.40;;;2.28;;
42668;SDS011;29384;42.028;21.388;2023-06-22T12:04:05;1.98;;;1.88;;
42668;SDS011;29384;42.028;21.388;2023-06-22T12:06:31;1.98;;;1.85;;
42668;SDS011;29384;42.028;21.388;2023-06-22T12:08:57;2.25;;;2.05;;
42668;SDS011;29384;42.028;21.388;2023-06-22T12:11:22;1.92;;;1.83;;
42668;SDS011;29384;42.028;21.388;2023-06-22T12:16:50;5.72;;;1.90;;
42668;SDS011;29384;42.028;21.388;2023-06-22T12:19:15;2.90;;;2.33;;
42668;SDS011;29384;42.028;21.388;2023-06-22T12:21:41;2.67;;;2.15;;
42668;SDS011;29384;42.028;21.388;2023-06-22T12:24:07;3.40;;;2.95;;
42668;SDS011;29384;42.028;21.388;2023-06-22T12:26:32;2.42;;;2.33;;
42668;SDS011;29384;42.028;21.388;2023-06-22T12:32:00;1.80;;;1.70;;
42668;SDS011;29384;42.028;21.388;2023-06-22T12:34:25;2.45;;;2.25;;
42668;SDS011;29384;42.028;21.388;2023-06-22T12:36:51;1.35;;;1.35;;
42668;SDS011;29384;42.028;21.388;2023-06-22T12:39:19;1.50;;;1.50;;
42668;SDS011;29384;42.028;21.388;2023-06-22T12:41:44;2.17;;;2.08;;
42668;SDS011;29384;42.028;21.388;2023-06-22T12:47:12;2.13;;;1.75;;
42668;SDS011;29384;42.028;21.388;2023-06-22T12:49:38;1.85;;;1.75;;
42668;SDS011;29384;42.028;21.388;2023-06-22T12:52:08;2.80;;;1.67;;
42668;SDS011;29384;42.028;21.388;2023-06-22T12:54:33;4.72;;;2.25;;
42668;SDS011;29384;42.028;21.388;2023-06-22T12:56:58;1.90;;;1.80;;
42668;SDS011;29384;42.028;21.388;2023-06-22T13:02:26;1.60;;;1.50;;
42668;SDS011;29384;42.028;21.388;2023-06-22T13:04:51;1.63;;;1.42;;
42668;SDS011;29384;42.028;21.388;2023-06-22T13:07:17;3.72;;;1.65;;
42668;SDS011;29384;42.028;21.388;2023-06-22T13:09:42;3.67;;;1.42;;
42668;SDS011;29384;42.028;21.388;2023-06-22T13:12:08;1.60;;;1.50;;
42668;SDS011;29384;42.028;21.388;2023-06-22T13:17:36;1.90;;;1.80;;
42668;SDS011;29384;42.028;21.388;2023-06-22T13:20:01;1.40;;;1.40;;
42668;SDS011;29384;42.028;21.388;2023-06-22T13:22:34;3.22;;;1.40;;
42668;SDS011;29384;42.028;21.388;2023-06-22T13:25:06;4.38;;;1.77;;
42668;SDS011;29384;42.028;21.388;2023-06-22T13:27:31;4.32;;;2.15;;
42668;SDS011;29384;42.028;21.388;2023-06-22T13:29:57;2.42;;;1.85;;
42668;SDS011;29384;42.028;21.388;2023-06-22T13:32:22;5.13;;;2.40;;
42668;SDS011;29384;42.028;21.388;2023-06-22T13:34:48;2.05;;;1.73;;
42668;SDS011;29384;42.028;21.388;2023-06-22T13:37:13;2.15;;;1.58;;
42668;SDS011;29384;42.028;21.388;2023-06-22T13:39:38;2.25;;;1.90;;
42668;SDS011;29384;42.028;21.388;2023-06-22T13:42:04;3.53;;;2.08;;
42668;SDS011;29384;42.028;21.388;2023-06-22T13:47:32;12.35;;;2.53;;
42668;SDS011;29384;42.028;21.388;2023-06-22T13:49:57;1.95;;;1.85;;
42668;SDS011;29384;42.028;21.388;2023-06-22T13:52:23;3.65;;;2.03;;
42668;SDS011;29384;42.028;21.388;2023-06-22T13:54:48;2.28;;;2.17;;
42668;SDS011;29384;42.028;21.388;2023-06-22T13:57:14;2.45;;;2.17;;
42668;SDS011;29384;42.028;21.388;2023-06-22T14:02:41;1.70;;;1.70;;
42668;SDS011;29384;42.028;21.388;2023-06-22T14:05:07;2.28;;;2.00;;
42668;SDS011;29384;42.028;21.388;2023-06-22T14:07:32;3.35;;;2.05;;
42668;SDS011;29384;42.028;21.388;2023-06-22T14:09:58;1.88;;;1.77;;
42668;SDS011;29384;42.028;21.388;2023-06-22T14:12:24;4.25;;;1.70;;
42668;SDS011;29384;42.028;21.388;2023-06-22T14:17:51;2.13;;;2.13;;
42668;SDS011;29384;42.028;21.388;2023-06-22T14:20:17;1.92;;;1.83;;
42668;SDS011;29384;42.028;21.388;2023-06-22T14:22:42;3.92;;;2.20;;
42668;SDS011;29384;42.028;21.388;2023-06-22T14:25:08;3.97;;;2.05;;
42668;SDS011;29384;42.028;21.388;2023-06-22T14:27:33;10.27;;;2.22;;
42668;SDS011;29384;42.028;21.388;2023-06-22T14:33:01;11.13;;;2.70;;
42668;SDS011;29384;42.028;21.388;2023-06-22T14:35:27;5.53;;;2.55;;
42668;SDS011;29384;42.028;21.388;2023-06-22T14:37:52;6.53;;;2.70;;
42668;SDS011;29384;42.028;21.388;2023-06-22T14:40:17;4.68;;;2.75;;
42668;SDS011;29384;42.028;21.388;2023-06-22T14:42:43;4.15;;;2.40;;
42668;SDS011;29384;42.028;21.388;2023-06-22T14:45:08;2.45;;;2.30;;
42668;SDS011;29384;42.028;21.388;2023-06-22T14:47:33;4.20;;;2.67;;
42668;SDS011;29384;42.028;21.388;2023-06-22T14:49:59;2.70;;;2.50;;
42668;SDS011;29384;42.028;21.388;2023-06-22T14:52:25;3.40;;;2.00;;
42668;SDS011;29384;42.028;21.388;2023-06-22T14:54:50;1.98;;;1.98;;
42668;SDS011;29384;42.028;21.388;2023-06-22T14:57:17;2.65;;;2.45;;
42668;SDS011;29384;42.028;21.388;2023-06-22T15:02:47;4.38;;;3.05;;
42668;SDS011;29384;42.028;21.388;2023-06-22T15:05:13;2.13;;;2.03;;
42668;SDS011;29384;42.028;21.388;2023-06-22T15:07:38;3.40;;;3.13;;
42668;SDS011;29384;42.028;21.388;2023-06-22T15:10:03;2.97;;;2.75;;
42668;SDS011;29384;42.028;21.388;2023-06-22T15:12:29;4.70;;;2.95;;
42668;SDS011;29384;42.028;21.388;2023-06-22T15:17:56;3.13;;;2.83;;
42668;SDS011;29384;42.028;21.388;2023-06-22T15:20:22;4.22;;;3.45;;
42668;SDS011;29384;42.028;21.388;2023-06-22T15:22:47;2.80;;;2.63;;
42668;SDS011;29384;42.028;21.388;2023-06-22T15:25:12;6.03;;;2.97;;
42668;SDS011;29384;42.028;21.388;2023-06-22T15:27:38;4.35;;;3.22;;
42668;SDS011;29384;42.028;21.388;2023-06-22T15:33:06;2.90;;;2.70;;
42668;SDS011;29384;42.028;21.388;2023-06-22T15:35:32;5.68;;;3.75;;
42668;SDS011;29384;42.028;21.388;2023-06-22T15:37:57;3.55;;;2.80;;
42668;SDS011;29384;42.028;21.388;2023-06-22T15:40:22;3.90;;;3.55;;
42668;SDS011;29384;42.028;21.388;2023-06-22T15:42:51;3.72;;;3.42;;
42668;SDS011;29384;42.028;21.388;2023-06-22T15:48:19;6.43;;;3.67;;
42668;SDS011;29384;42.028;21.388;2023-06-22T15:50:45;3.42;;;3.13;;
42668;SDS011;29384;42.028;21.388;2023-06-22T15:53:10;3.92;;;3.28;;
42668;SDS011;29384;42.028;21.388;2023-06-22T15:55:35;8.25;;;3.35;;
42668;SDS011;29384;42.028;21.388;2023-06-22T15:58:01;4.60;;;3.05;;
42668;SDS011;29384;42.028;21.388;2023-06-22T16:03:29;4.50;;;2.70;;
42668;SDS011;29384;42.028;21.388;2023-06-22T16:05:54;6.28;;;4.35;;
42668;SDS011;29384;42.028;21.388;2023-06-22T16:08:20;4.30;;;4.00;;
42668;SDS011;29384;42.028;21.388;2023-06-22T16:10:46;4.15;;;3.38;;
42668;SDS011;29384;42.028;21.388;2023-06-22T16:13:11;6.40;;;3.13;;
42668;SDS011;29384;42.028;21.388;2023-06-22T16:15:36;5.68;;;3.50;;
42668;SDS011;29384;42.028;21.388;2023-06-22T16:18:04;5.72;;;3.00;;
42668;SDS011;29384;42.028;21.388;2023-06-22T16:20:30;3.58;;;3.47;;
42668;SDS011;29384;42.028;21.388;2023-06-22T16:22:55;3.13;;;3.03;;
42668;SDS011;29384;42.028;21.388;2023-06-22T16:25:20;4.97;;;3.58;;
42668;SDS011;29384;42.028;21.388;2023-06-22T16:27:46;3.38;;;3.17;;
42668;SDS011;29384;42.028;21.388;2023-06-22T16:33:14;4.28;;;3.90;;
42668;SDS011;29384;42.028;21.388;2023-06-22T16:35:39;2.97;;;2.85;;
42668;SDS011;29384;42.028;21.388;2023-06-22T16:38:06;3.63;;;3.00;;
42668;SDS011;29384;42.028;21.388;2023-06-22T16:40:31;2.78;;;2.67;;
42668;SDS011;29384;42.028;21.388;2023-06-22T16:42:56;4.45;;;3.88;;
42668;SDS011;29384;42.028;21.388;2023-06-22T16:48:24;3.67;;;2.85;;
42668;SDS011;29384;42.028;21.388;2023-06-22T16:50:50;3.83;;;3.58;;
42668;SDS011;29384;42.028;21.388;2023-06-22T16:53:15;4.60;;;4.20;;
42668;SDS011;29384;42.028;21.388;2023-06-22T16:55:42;3.42;;;3.20;;
42668;SDS011;29384;42.028;21.388;2023-06-22T16:58:09;3.88;;;3.67;;
42668;SDS011;29384;42.028;21.388;2023-06-22T17:03:40;5.57;;;3.72;;
42668;SDS011;29384;42.028;21.388;2023-06-22T17:06:08;3.25;;;3.05;;
42668;SDS011;29384;42.028;21.388;2023-06-22T17:08:34;5.75;;;3.53;;